ZGSZ METAR and TAF | Updated Today

ZGSZ METAR

Shenzhen Bao'an International Airport

Observation time: 15 min. ago

ZGSZ 052100Z 35002MPS 8000 BKN033 18/16 Q1014 NOSIG

Need help? Read our tutorial on how to read METARs or read the parsed version below.

Shenzhen Bao'an International Airport (ZGSZ) METAR

  • Weather conditions on Sun, 05 Feb 2023 21:00:00 +0000 (15 min. ago):
  • Present conditions: Dry
  • Clouds: Broken sky at 1006 meters
  • Visibility: 8000 meters
  • Wind: 350 degrees at 2 knots
  • Temperature: 18 celsius
  • Dew point: 16 celsius
  • Pressure: 1014 millibars
  • Remarks: None


Useful to know...

ZGSZ TAF

Shenzhen Bao'an International Airport

TAF ZGSZ 051502Z 0518/0618 06003MPS 6000 BKN040 TX23/0606Z TN18/0522Z BECMG 0604/0606 18004MPS BECMG 0610/0612 10003MPS
Observation time: 6:13 hr. ago
Need help? Read our tutorial on how to read TAFs or read the parsed version below.

Parsed version of TAF for Shenzhen Bao'an International Airport (ZGSZ)

  • From 05 February at 18:00 UTC, to day 06 of the month at 18:00 UTC
  • Clouds: Broken sky at 1219 meters
  • Visibility: 6000 meters
  • Wind: 60 degrees at 3
  • Expected to arise soon, from 06 February at 04:00 UTC, to day 06 of the month at 06:00 UTC
  • Wind: 180 degrees at 4
  • Expected to arise soon, from 06 February at 10:00 UTC, to day 06 of the month at 12:00 UTC
  • Wind: 100 degrees at 3